sensor_id;sensor_type;location;lat;lon;timestamp;P1;durP1;ratioP1;P2;durP2;ratioP2
23658;SDS011;12006;42.666;23.326;2022-12-18T00:01:12;4.03;;;3.30;;
23658;SDS011;12006;42.666;23.326;2022-12-18T00:03:38;5.77;;;3.30;;
23658;SDS011;12006;42.666;23.326;2022-12-18T00:06:03;5.00;;;4.40;;
23658;SDS011;12006;42.666;23.326;2022-12-18T00:08:29;4.23;;;3.83;;
23658;SDS011;12006;42.666;23.326;2022-12-18T00:10:54;6.90;;;5.20;;
23658;SDS011;12006;42.666;23.326;2022-12-18T00:13:19;3.73;;;3.40;;
23658;SDS011;12006;42.666;23.326;2022-12-18T00:15:44;3.97;;;3.43;;
23658;SDS011;12006;42.666;23.326;2022-12-18T00:18:10;1.87;;;1.77;;
23658;SDS011;12006;42.666;23.326;2022-12-18T00:20:36;4.73;;;3.37;;
23658;SDS011;12006;42.666;23.326;2022-12-18T00:23:01;4.17;;;3.70;;
23658;SDS011;12006;42.666;23.326;2022-12-18T00:25:26;5.30;;;4.67;;
23658;SDS011;12006;42.666;23.326;2022-12-18T00:27:52;6.37;;;5.27;;
23658;SDS011;12006;42.666;23.326;2022-12-18T00:30:17;4.23;;;3.73;;
23658;SDS011;12006;42.666;23.326;2022-12-18T00:32:42;5.17;;;4.03;;
23658;SDS011;12006;42.666;23.326;2022-12-18T00:35:08;6.67;;;5.40;;
23658;SDS011;12006;42.666;23.326;2022-12-18T00:37:33;7.50;;;6.57;;
23658;SDS011;12006;42.666;23.326;2022-12-18T00:39:59;7.87;;;6.23;;
23658;SDS011;12006;42.666;23.326;2022-12-18T00:42:24;6.93;;;6.23;;
23658;SDS011;12006;42.666;23.326;2022-12-18T00:45:08;6.83;;;5.30;;
23658;SDS011;12006;42.666;23.326;2022-12-18T00:47:33;7.53;;;6.73;;
23658;SDS011;12006;42.666;23.326;2022-12-18T00:49:58;7.83;;;6.07;;
23658;SDS011;12006;42.666;23.326;2022-12-18T00:52:24;8.63;;;6.97;;
23658;SDS011;12006;42.666;23.326;2022-12-18T00:54:49;6.67;;;5.40;;
23658;SDS011;12006;42.666;23.326;2022-12-18T00:57:14;6.77;;;4.97;;
23658;SDS011;12006;42.666;23.326;2022-12-18T00:59:39;7.73;;;6.57;;
23658;SDS011;12006;42.666;23.326;2022-12-18T01:02:05;9.23;;;5.83;;
23658;SDS011;12006;42.666;23.326;2022-12-18T01:04:33;7.97;;;5.53;;
23658;SDS011;12006;42.666;23.326;2022-12-18T01:06:58;8.17;;;6.77;;
23658;SDS011;12006;42.666;23.326;2022-12-18T01:09:23;10.37;;;7.77;;
23658;SDS011;12006;42.666;23.326;2022-12-18T01:11:49;7.87;;;6.27;;
23658;SDS011;12006;42.666;23.326;2022-12-18T01:14:14;7.83;;;6.60;;
23658;SDS011;12006;42.666;23.326;2022-12-18T01:16:39;8.90;;;4.70;;
23658;SDS011;12006;42.666;23.326;2022-12-18T01:19:05;7.23;;;5.03;;
23658;SDS011;12006;42.666;23.326;2022-12-18T01:21:30;7.33;;;5.83;;
23658;SDS011;12006;42.666;23.326;2022-12-18T01:23:56;9.37;;;7.70;;
23658;SDS011;12006;42.666;23.326;2022-12-18T01:26:21;9.23;;;5.63;;
23658;SDS011;12006;42.666;23.326;2022-12-18T01:28:47;7.70;;;6.27;;
23658;SDS011;12006;42.666;23.326;2022-12-18T01:31:17;6.63;;;5.00;;
23658;SDS011;12006;42.666;23.326;2022-12-18T01:33:42;8.67;;;7.67;;
23658;SDS011;12006;42.666;23.326;2022-12-18T01:36:08;6.67;;;5.83;;
23658;SDS011;12006;42.666;23.326;2022-12-18T01:38:39;8.03;;;6.43;;
23658;SDS011;12006;42.666;23.326;2022-12-18T01:41:04;10.63;;;8.30;;
23658;SDS011;12006;42.666;23.326;2022-12-18T01:43:42;8.97;;;7.23;;
23658;SDS011;12006;42.666;23.326;2022-12-18T01:46:08;7.47;;;5.60;;
23658;SDS011;12006;42.666;23.326;2022-12-18T01:48:33;5.93;;;4.87;;
23658;SDS011;12006;42.666;23.326;2022-12-18T01:50:58;9.57;;;7.03;;
23658;SDS011;12006;42.666;23.326;2022-12-18T01:53:24;9.47;;;7.43;;
23658;SDS011;12006;42.666;23.326;2022-12-18T01:55:51;9.83;;;8.47;;
23658;SDS011;12006;42.666;23.326;2022-12-18T01:58:17;8.60;;;7.30;;
23658;SDS011;12006;42.666;23.326;2022-12-18T02:00:43;7.73;;;5.07;;
23658;SDS011;12006;42.666;23.326;2022-12-18T02:03:08;9.40;;;7.60;;
23658;SDS011;12006;42.666;23.326;2022-12-18T02:10:25;7.60;;;6.20;;
23658;SDS011;12006;42.666;23.326;2022-12-18T02:17:58;7.90;;;6.03;;
23658;SDS011;12006;42.666;23.326;2022-12-18T02:26:36;12.23;;;8.53;;
23658;SDS011;12006;42.666;23.326;2022-12-18T02:28:30;8.90;;;7.40;;
23658;SDS011;12006;42.666;23.326;2022-12-18T02:30:56;6.07;;;5.33;;
23658;SDS011;12006;42.666;23.326;2022-12-18T02:33:23;8.27;;;7.47;;
23658;SDS011;12006;42.666;23.326;2022-12-18T02:35:50;11.47;;;8.43;;
23658;SDS011;12006;42.666;23.326;2022-12-18T02:38:16;9.97;;;8.03;;
23658;SDS011;12006;42.666;23.326;2022-12-18T02:40:41;7.63;;;6.07;;
23658;SDS011;12006;42.666;23.326;2022-12-18T02:43:08;8.93;;;7.87;;
23658;SDS011;12006;42.666;23.326;2022-12-18T02:45:34;6.73;;;5.50;;
23658;SDS011;12006;42.666;23.326;2022-12-18T02:47:59;8.73;;;6.23;;
23658;SDS011;12006;42.666;23.326;2022-12-18T02:50:26;10.07;;;7.50;;
23658;SDS011;12006;42.666;23.326;2022-12-18T02:58:19;8.30;;;7.30;;
23658;SDS011;12006;42.666;23.326;2022-12-18T03:00:45;8.77;;;6.37;;
23658;SDS011;12006;42.666;23.326;2022-12-18T03:03:21;8.13;;;6.90;;
23658;SDS011;12006;42.666;23.326;2022-12-18T03:05:58;7.43;;;6.73;;
23658;SDS011;12006;42.666;23.326;2022-12-18T03:08:26;5.97;;;5.37;;
23658;SDS011;12006;42.666;23.326;2022-12-18T03:11:00;7.10;;;6.37;;
23658;SDS011;12006;42.666;23.326;2022-12-18T03:13:46;9.47;;;7.50;;
23658;SDS011;12006;42.666;23.326;2022-12-18T03:16:15;7.47;;;6.43;;
23658;SDS011;12006;42.666;23.326;2022-12-18T03:18:43;8.20;;;6.53;;
23658;SDS011;12006;42.666;23.326;2022-12-18T03:21:10;7.40;;;6.00;;
23658;SDS011;12006;42.666;23.326;2022-12-18T03:23:39;9.23;;;7.40;;
23658;SDS011;12006;42.666;23.326;2022-12-18T03:26:07;6.03;;;4.50;;
23658;SDS011;12006;42.666;23.326;2022-12-18T03:28:35;8.60;;;6.47;;
23658;SDS011;12006;42.666;23.326;2022-12-18T03:31:01;6.40;;;5.40;;
23658;SDS011;12006;42.666;23.326;2022-12-18T03:33:31;8.37;;;7.00;;
23658;SDS011;12006;42.666;23.326;2022-12-18T03:35:59;7.73;;;6.50;;
23658;SDS011;12006;42.666;23.326;2022-12-18T03:38:25;8.43;;;6.67;;
23658;SDS011;12006;42.666;23.326;2022-12-18T03:40:56;8.73;;;7.80;;
23658;SDS011;12006;42.666;23.326;2022-12-18T03:43:35;5.13;;;4.43;;
23658;SDS011;12006;42.666;23.326;2022-12-18T03:46:05;9.03;;;7.03;;
23658;SDS011;12006;42.666;23.326;2022-12-18T03:48:33;8.00;;;6.93;;
23658;SDS011;12006;42.666;23.326;2022-12-18T03:51:05;6.27;;;3.73;;
23658;SDS011;12006;42.666;23.326;2022-12-18T03:56:00;5.27;;;3.90;;
23658;SDS011;12006;42.666;23.326;2022-12-18T03:58:27;7.40;;;6.67;;
23658;SDS011;12006;42.666;23.326;2022-12-18T04:00:54;7.23;;;5.97;;
23658;SDS011;12006;42.666;23.326;2022-12-18T04:03:21;8.37;;;7.17;;
23658;SDS011;12006;42.666;23.326;2022-12-18T04:05:48;7.87;;;6.40;;
23658;SDS011;12006;42.666;23.326;2022-12-18T04:08:15;10.40;;;6.90;;
23658;SDS011;12006;42.666;23.326;2022-12-18T04:10:40;4.10;;;3.37;;
23658;SDS011;12006;42.666;23.326;2022-12-18T04:13:05;7.70;;;6.47;;
23658;SDS011;12006;42.666;23.326;2022-12-18T04:15:31;9.97;;;7.83;;
23658;SDS011;12006;42.666;23.326;2022-12-18T04:17:59;9.10;;;5.00;;
23658;SDS011;12006;42.666;23.326;2022-12-18T04:20:24;8.43;;;6.73;;
23658;SDS011;12006;42.666;23.326;2022-12-18T04:22:49;10.13;;;7.60;;
23658;SDS011;12006;42.666;23.326;2022-12-18T04:25:15;5.80;;;5.20;;
23658;SDS011;12006;42.666;23.326;2022-12-18T04:27:40;7.73;;;6.63;;
23658;SDS011;12006;42.666;23.326;2022-12-18T04:30:05;5.40;;;3.47;;
23658;SDS011;12006;42.666;23.326;2022-12-18T04:32:31;7.57;;;5.73;;
23658;SDS011;12006;42.666;23.326;2022-12-18T04:34:57;7.20;;;5.37;;
23658;SDS011;12006;42.666;23.326;2022-12-18T04:37:23;6.90;;;5.20;;
23658;SDS011;12006;42.666;23.326;2022-12-18T04:39:48;8.13;;;6.50;;
23658;SDS011;12006;42.666;23.326;2022-12-18T04:42:13;8.43;;;5.90;;
23658;SDS011;12006;42.666;23.326;2022-12-18T04:44:39;7.20;;;4.67;;
23658;SDS011;12006;42.666;23.326;2022-12-18T04:47:04;5.50;;;4.47;;
23658;SDS011;12006;42.666;23.326;2022-12-18T04:49:29;7.97;;;6.33;;
23658;SDS011;12006;42.666;23.326;2022-12-18T04:51:54;8.13;;;6.13;;
23658;SDS011;12006;42.666;23.326;2022-12-18T04:54:20;6.67;;;4.60;;
23658;SDS011;12006;42.666;23.326;2022-12-18T04:56:45;8.33;;;5.97;;
23658;SDS011;12006;42.666;23.326;2022-12-18T04:59:10;7.73;;;6.07;;
23658;SDS011;12006;42.666;23.326;2022-12-18T05:01:36;6.07;;;5.10;;
23658;SDS011;12006;42.666;23.326;2022-12-18T05:04:01;7.83;;;5.70;;
23658;SDS011;12006;42.666;23.326;2022-12-18T05:06:27;6.70;;;5.80;;
23658;SDS011;12006;42.666;23.326;2022-12-18T05:08:52;9.33;;;7.17;;
23658;SDS011;12006;42.666;23.326;2022-12-18T05:11:17;7.40;;;4.87;;
23658;SDS011;12006;42.666;23.326;2022-12-18T05:13:43;7.00;;;5.13;;
23658;SDS011;12006;42.666;23.326;2022-12-18T05:16:09;6.67;;;5.17;;
23658;SDS011;12006;42.666;23.326;2022-12-18T05:18:34;7.50;;;5.87;;
23658;SDS011;12006;42.666;23.326;2022-12-18T05:21:00;8.33;;;5.43;;
23658;SDS011;12006;42.666;23.326;2022-12-18T05:23:25;11.70;;;9.00;;
23658;SDS011;12006;42.666;23.326;2022-12-18T05:25:54;11.93;;;8.13;;
23658;SDS011;12006;42.666;23.326;2022-12-18T05:28:20;10.17;;;7.20;;
23658;SDS011;12006;42.666;23.326;2022-12-18T05:30:52;12.80;;;8.53;;
23658;SDS011;12006;42.666;23.326;2022-12-18T05:33:18;8.70;;;5.63;;
23658;SDS011;12006;42.666;23.326;2022-12-18T05:35:43;8.90;;;6.57;;
23658;SDS011;12006;42.666;23.326;2022-12-18T05:38:09;9.70;;;6.43;;
23658;SDS011;12006;42.666;23.326;2022-12-18T05:40:34;7.20;;;5.10;;
23658;SDS011;12006;42.666;23.326;2022-12-18T05:42:59;5.40;;;4.27;;
23658;SDS011;12006;42.666;23.326;2022-12-18T05:45:24;7.57;;;5.87;;
23658;SDS011;12006;42.666;23.326;2022-12-18T05:47:50;9.10;;;6.90;;
23658;SDS011;12006;42.666;23.326;2022-12-18T05:50:15;6.57;;;4.20;;
23658;SDS011;12006;42.666;23.326;2022-12-18T05:52:40;10.27;;;6.03;;
23658;SDS011;12006;42.666;23.326;2022-12-18T05:55:06;13.13;;;8.07;;
23658;SDS011;12006;42.666;23.326;2022-12-18T05:57:31;12.30;;;7.47;;
23658;SDS011;12006;42.666;23.326;2022-12-18T05:59:56;11.80;;;5.23;;
23658;SDS011;12006;42.666;23.326;2022-12-18T06:02:21;12.70;;;8.90;;
23658;SDS011;12006;42.666;23.326;2022-12-18T06:04:47;10.57;;;6.67;;
23658;SDS011;12006;42.666;23.326;2022-12-18T06:07:12;8.57;;;6.80;;
23658;SDS011;12006;42.666;23.326;2022-12-18T06:09:37;10.63;;;6.67;;
23658;SDS011;12006;42.666;23.326;2022-12-18T06:12:03;7.97;;;5.87;;
23658;SDS011;12006;42.666;23.326;2022-12-18T06:14:28;9.47;;;6.17;;
23658;SDS011;12006;42.666;23.326;2022-12-18T06:16:53;12.93;;;9.40;;
23658;SDS011;12006;42.666;23.326;2022-12-18T06:19:18;12.77;;;8.07;;
23658;SDS011;12006;42.666;23.326;2022-12-18T06:21:44;12.60;;;8.90;;
23658;SDS011;12006;42.666;23.326;2022-12-18T06:24:09;6.37;;;4.40;;
23658;SDS011;12006;42.666;23.326;2022-12-18T06:26:36;10.63;;;6.50;;
23658;SDS011;12006;42.666;23.326;2022-12-18T06:29:01;11.33;;;9.37;;
23658;SDS011;12006;42.666;23.326;2022-12-18T06:31:27;11.47;;;8.57;;
23658;SDS011;12006;42.666;23.326;2022-12-18T06:33:52;11.43;;;8.67;;
23658;SDS011;12006;42.666;23.326;2022-12-18T06:36:17;9.43;;;6.60;;
23658;SDS011;12006;42.666;23.326;2022-12-18T06:38:43;10.37;;;7.17;;
23658;SDS011;12006;42.666;23.326;2022-12-18T06:41:12;12.93;;;9.33;;
23658;SDS011;12006;42.666;23.326;2022-12-18T06:43:38;14.50;;;7.00;;
23658;SDS011;12006;42.666;23.326;2022-12-18T06:46:03;10.77;;;8.23;;
23658;SDS011;12006;42.666;23.326;2022-12-18T06:48:29;14.57;;;8.53;;
23658;SDS011;12006;42.666;23.326;2022-12-18T06:50:55;16.10;;;10.87;;
23658;SDS011;12006;42.666;23.326;2022-12-18T06:53:20;16.10;;;10.17;;
23658;SDS011;12006;42.666;23.326;2022-12-18T06:55:45;11.30;;;7.43;;
23658;SDS011;12006;42.666;23.326;2022-12-18T06:58:10;11.40;;;7.73;;
23658;SDS011;12006;42.666;23.326;2022-12-18T07:00:36;10.90;;;7.40;;
23658;SDS011;12006;42.666;23.326;2022-12-18T07:03:01;15.97;;;9.27;;
23658;SDS011;12006;42.666;23.326;2022-12-18T07:05:26;10.73;;;5.77;;
23658;SDS011;12006;42.666;23.326;2022-12-18T07:07:51;5.60;;;4.93;;
23658;SDS011;12006;42.666;23.326;2022-12-18T07:10:17;9.57;;;7.70;;
23658;SDS011;12006;42.666;23.326;2022-12-18T07:12:42;10.43;;;7.07;;
23658;SDS011;12006;42.666;23.326;2022-12-18T07:15:08;12.43;;;8.67;;
23658;SDS011;12006;42.666;23.326;2022-12-18T07:17:33;13.63;;;9.30;;
23658;SDS011;12006;42.666;23.326;2022-12-18T07:19:58;12.70;;;8.97;;
23658;SDS011;12006;42.666;23.326;2022-12-18T07:22:24;7.97;;;5.23;;
23658;SDS011;12006;42.666;23.326;2022-12-18T07:24:50;10.47;;;6.63;;
23658;SDS011;12006;42.666;23.326;2022-12-18T07:27:15;13.43;;;8.77;;
23658;SDS011;12006;42.666;23.326;2022-12-18T07:29:40;9.83;;;6.97;;
23658;SDS011;12006;42.666;23.326;2022-12-18T07:32:05;10.00;;;8.20;;
23658;SDS011;12006;42.666;23.326;2022-12-18T07:34:32;13.13;;;8.97;;
23658;SDS011;12006;42.666;23.326;2022-12-18T07:36:57;16.87;;;11.13;;
23658;SDS011;12006;42.666;23.326;2022-12-18T07:39:22;12.93;;;9.63;;
23658;SDS011;12006;42.666;23.326;2022-12-18T07:41:48;17.17;;;11.03;;
23658;SDS011;12006;42.666;23.326;2022-12-18T07:44:33;6.20;;;5.30;;
23658;SDS011;12006;42.666;23.326;2022-12-18T07:46:58;13.90;;;9.97;;
23658;SDS011;12006;42.666;23.326;2022-12-18T07:49:23;13.33;;;7.97;;
23658;SDS011;12006;42.666;23.326;2022-12-18T07:51:49;10.00;;;5.40;;
23658;SDS011;12006;42.666;23.326;2022-12-18T07:54:14;9.80;;;7.47;;
23658;SDS011;12006;42.666;23.326;2022-12-18T07:56:39;17.43;;;11.03;;
23658;SDS011;12006;42.666;23.326;2022-12-18T07:59:04;11.10;;;6.60;;
23658;SDS011;12006;42.666;23.326;2022-12-18T08:01:30;17.13;;;12.33;;
23658;SDS011;12006;42.666;23.326;2022-12-18T08:03:55;6.77;;;5.57;;
23658;SDS011;12006;42.666;23.326;2022-12-18T08:06:20;15.63;;;10.57;;
23658;SDS011;12006;42.666;23.326;2022-12-18T08:08:46;11.93;;;8.57;;
23658;SDS011;12006;42.666;23.326;2022-12-18T08:11:11;14.80;;;9.97;;
23658;SDS011;12006;42.666;23.326;2022-12-18T08:13:36;10.80;;;7.53;;
23658;SDS011;12006;42.666;23.326;2022-12-18T08:16:05;15.67;;;9.67;;
23658;SDS011;12006;42.666;23.326;2022-12-18T08:18:35;16.20;;;10.57;;
23658;SDS011;12006;42.666;23.326;2022-12-18T08:21:10;13.77;;;9.37;;
23658;SDS011;12006;42.666;23.326;2022-12-18T08:23:35;17.43;;;8.93;;
23658;SDS011;12006;42.666;23.326;2022-12-18T08:26:01;15.70;;;10.00;;
23658;SDS011;12006;42.666;23.326;2022-12-18T08:28:26;16.30;;;11.17;;
23658;SDS011;12006;42.666;23.326;2022-12-18T08:30:51;20.50;;;13.33;;
23658;SDS011;12006;42.666;23.326;2022-12-18T08:33:17;16.30;;;10.27;;
23658;SDS011;12006;42.666;23.326;2022-12-18T08:35:42;15.20;;;10.17;;
23658;SDS011;12006;42.666;23.326;2022-12-18T08:38:07;17.33;;;12.90;;
23658;SDS011;12006;42.666;23.326;2022-12-18T08:40:32;11.60;;;8.37;;
23658;SDS011;12006;42.666;23.326;2022-12-18T08:42:58;8.40;;;5.97;;
23658;SDS011;12006;42.666;23.326;2022-12-18T08:45:42;16.23;;;10.10;;
23658;SDS011;12006;42.666;23.326;2022-12-18T08:48:07;14.53;;;8.37;;
23658;SDS011;12006;42.666;23.326;2022-12-18T08:50:32;20.73;;;13.10;;
23658;SDS011;12006;42.666;23.326;2022-12-18T08:52:58;22.03;;;14.07;;
23658;SDS011;12006;42.666;23.326;2022-12-18T08:55:23;16.00;;;10.47;;
23658;SDS011;12006;42.666;23.326;2022-12-18T08:57:48;13.93;;;9.40;;
23658;SDS011;12006;42.666;23.326;2022-12-18T09:00:14;18.33;;;12.50;;
23658;SDS011;12006;42.666;23.326;2022-12-18T09:02:40;18.40;;;12.67;;
23658;SDS011;12006;42.666;23.326;2022-12-18T09:05:05;17.83;;;12.27;;
23658;SDS011;12006;42.666;23.326;2022-12-18T09:07:30;17.33;;;10.37;;
23658;SDS011;12006;42.666;23.326;2022-12-18T09:09:55;21.13;;;14.33;;
23658;SDS011;12006;42.666;23.326;2022-12-18T09:12:20;19.83;;;13.27;;
23658;SDS011;12006;42.666;23.326;2022-12-18T09:14:46;17.33;;;11.40;;
23658;SDS011;12006;42.666;23.326;2022-12-18T09:17:11;7.67;;;5.53;;
23658;SDS011;12006;42.666;23.326;2022-12-18T09:19:36;18.00;;;12.30;;
23658;SDS011;12006;42.666;23.326;2022-12-18T09:22:01;16.90;;;10.13;;
23658;SDS011;12006;42.666;23.326;2022-12-18T09:24:27;11.43;;;7.30;;
23658;SDS011;12006;42.666;23.326;2022-12-18T09:26:53;10.27;;;7.37;;
23658;SDS011;12006;42.666;23.326;2022-12-18T09:29:19;16.00;;;8.97;;
23658;SDS011;12006;42.666;23.326;2022-12-18T09:31:44;13.23;;;8.93;;
23658;SDS011;12006;42.666;23.326;2022-12-18T09:34:09;10.20;;;6.53;;
23658;SDS011;12006;42.666;23.326;2022-12-18T09:36:35;14.47;;;8.67;;
23658;SDS011;12006;42.666;23.326;2022-12-18T09:39:00;16.70;;;9.17;;
23658;SDS011;12006;42.666;23.326;2022-12-18T09:46:37;14.97;;;10.17;;
23658;SDS011;12006;42.666;23.326;2022-12-18T09:49:05;14.97;;;9.40;;
23658;SDS011;12006;42.666;23.326;2022-12-18T09:51:37;14.90;;;9.60;;
23658;SDS011;12006;42.666;23.326;2022-12-18T09:54:05;15.33;;;9.90;;
23658;SDS011;12006;42.666;23.326;2022-12-18T09:56:38;14.33;;;9.63;;
23658;SDS011;12006;42.666;23.326;2022-12-18T09:59:04;9.83;;;6.10;;
23658;SDS011;12006;42.666;23.326;2022-12-18T10:01:31;9.83;;;6.13;;
23658;SDS011;12006;42.666;23.326;2022-12-18T10:03:57;8.53;;;6.20;;
23658;SDS011;12006;42.666;23.326;2022-12-18T10:06:27;13.90;;;7.57;;
23658;SDS011;12006;42.666;23.326;2022-12-18T10:11:28;17.70;;;12.30;;
23658;SDS011;12006;42.666;23.326;2022-12-18T10:14:02;16.17;;;10.33;;
23658;SDS011;12006;42.666;23.326;2022-12-18T10:24:55;9.33;;;6.50;;
23658;SDS011;12006;42.666;23.326;2022-12-18T10:27:22;12.53;;;7.23;;
23658;SDS011;12006;42.666;23.326;2022-12-18T10:29:48;15.50;;;10.57;;
23658;SDS011;12006;42.666;23.326;2022-12-18T10:32:18;13.57;;;9.17;;
23658;SDS011;12006;42.666;23.326;2022-12-18T10:34:47;13.50;;;8.73;;
23658;SDS011;12006;42.666;23.326;2022-12-18T10:37:15;16.40;;;10.53;;
23658;SDS011;12006;42.666;23.326;2022-12-18T10:39:41;16.03;;;10.43;;
23658;SDS011;12006;42.666;23.326;2022-12-18T10:42:24;15.27;;;8.63;;
23658;SDS011;12006;42.666;23.326;2022-12-18T10:44:54;15.30;;;9.97;;
23658;SDS011;12006;42.666;23.326;2022-12-18T10:47:25;9.33;;;6.27;;
23658;SDS011;12006;42.666;23.326;2022-12-18T10:49:52;11.67;;;6.73;;
23658;SDS011;12006;42.666;23.326;2022-12-18T10:52:20;15.60;;;9.60;;
23658;SDS011;12006;42.666;23.326;2022-12-18T10:54:47;15.93;;;8.20;;
23658;SDS011;12006;42.666;23.326;2022-12-18T10:57:17;8.83;;;5.93;;
23658;SDS011;12006;42.666;23.326;2022-12-18T10:59:52;15.80;;;10.13;;
23658;SDS011;12006;42.666;23.326;2022-12-18T11:02:28;10.73;;;6.43;;
23658;SDS011;12006;42.666;23.326;2022-12-18T11:04:58;12.30;;;7.23;;
23658;SDS011;12006;42.666;23.326;2022-12-18T11:07:23;10.43;;;7.50;;
23658;SDS011;12006;42.666;23.326;2022-12-18T11:09:59;13.57;;;6.63;;
23658;SDS011;12006;42.666;23.326;2022-12-18T11:12:24;10.17;;;7.03;;
23658;SDS011;12006;42.666;23.326;2022-12-18T11:14:50;7.00;;;5.83;;
23658;SDS011;12006;42.666;23.326;2022-12-18T11:17:25;12.77;;;7.77;;
23658;SDS011;12006;42.666;23.326;2022-12-18T11:19:53;11.53;;;6.87;;
23658;SDS011;12006;42.666;23.326;2022-12-18T11:22:20;10.00;;;5.10;;
23658;SDS011;12006;42.666;23.326;2022-12-18T11:25:19;14.80;;;9.47;;
23658;SDS011;12006;42.666;23.326;2022-12-18T11:27:38;11.53;;;5.63;;
23658;SDS011;12006;42.666;23.326;2022-12-18T11:32:39;11.13;;;7.63;;
23658;SDS011;12006;42.666;23.326;2022-12-18T11:35:19;10.47;;;6.30;;
23658;SDS011;12006;42.666;23.326;2022-12-18T11:37:57;11.00;;;7.23;;
23658;SDS011;12006;42.666;23.326;2022-12-18T11:40:45;14.73;;;9.47;;
23658;SDS011;12006;42.666;23.326;2022-12-18T11:45:54;13.33;;;9.20;;
23658;SDS011;12006;42.666;23.326;2022-12-18T11:48:30;10.87;;;6.57;;
23658;SDS011;12006;42.666;23.326;2022-12-18T11:51:01;13.50;;;8.40;;
23658;SDS011;12006;42.666;23.326;2022-12-18T11:53:28;8.50;;;4.67;;
23658;SDS011;12006;42.666;23.326;2022-12-18T11:56:19;8.00;;;5.43;;
23658;SDS011;12006;42.666;23.326;2022-12-18T11:58:52;13.03;;;8.70;;
23658;SDS011;12006;42.666;23.326;2022-12-18T12:06:31;12.47;;;6.37;;
23658;SDS011;12006;42.666;23.326;2022-12-18T12:09:10;13.67;;;9.03;;
23658;SDS011;12006;42.666;23.326;2022-12-18T12:14:10;10.27;;;4.80;;
23658;SDS011;12006;42.666;23.326;2022-12-18T12:24:41;11.20;;;7.60;;
23658;SDS011;12006;42.666;23.326;2022-12-18T12:30:03;11.37;;;7.70;;
23658;SDS011;12006;42.666;23.326;2022-12-18T12:40:12;17.67;;;9.77;;
23658;SDS011;12006;42.666;23.326;2022-12-18T12:42:39;11.30;;;7.93;;
23658;SDS011;12006;42.666;23.326;2022-12-18T12:45:30;12.40;;;6.60;;
23658;SDS011;12006;42.666;23.326;2022-12-18T12:47:58;14.03;;;8.77;;
23658;SDS011;12006;42.666;23.326;2022-12-18T12:50:24;15.13;;;10.83;;
23658;SDS011;12006;42.666;23.326;2022-12-18T12:52:51;12.73;;;8.67;;
23658;SDS011;12006;42.666;23.326;2022-12-18T12:55:19;11.10;;;5.40;;
23658;SDS011;12006;42.666;23.326;2022-12-18T12:57:54;12.33;;;7.50;;
23658;SDS011;12006;42.666;23.326;2022-12-18T13:00:21;8.97;;;5.77;;
23658;SDS011;12006;42.666;23.326;2022-12-18T13:05:16;18.77;;;12.90;;
23658;SDS011;12006;42.666;23.326;2022-12-18T13:07:50;16.00;;;10.83;;
23658;SDS011;12006;42.666;23.326;2022-12-18T13:13:04;11.77;;;7.23;;
23658;SDS011;12006;42.666;23.326;2022-12-18T13:15:34;15.10;;;10.07;;
23658;SDS011;12006;42.666;23.326;2022-12-18T13:18:05;16.03;;;11.70;;
23658;SDS011;12006;42.666;23.326;2022-12-18T13:20:43;17.03;;;11.70;;
23658;SDS011;12006;42.666;23.326;2022-12-18T13:25:49;21.90;;;12.40;;
23658;SDS011;12006;42.666;23.326;2022-12-18T13:28:16;11.43;;;8.87;;
23658;SDS011;12006;42.666;23.326;2022-12-18T13:30:42;11.77;;;8.20;;
23658;SDS011;12006;42.666;23.326;2022-12-18T13:35:41;11.07;;;8.13;;
23658;SDS011;12006;42.666;23.326;2022-12-18T13:45:45;19.53;;;13.43;;
23658;SDS011;12006;42.666;23.326;2022-12-18T13:48:21;17.50;;;11.87;;
23658;SDS011;12006;42.666;23.326;2022-12-18T13:50:48;16.77;;;12.50;;
23658;SDS011;12006;42.666;23.326;2022-12-18T13:53:24;21.53;;;13.47;;
23658;SDS011;12006;42.666;23.326;2022-12-18T13:55:51;18.57;;;12.73;;
23658;SDS011;12006;42.666;23.326;2022-12-18T13:58:16;12.57;;;7.60;;
23658;SDS011;12006;42.666;23.326;2022-12-18T14:00:42;15.47;;;12.10;;
23658;SDS011;12006;42.666;23.326;2022-12-18T14:03:18;17.30;;;12.03;;
23658;SDS011;12006;42.666;23.326;2022-12-18T14:05:44;10.87;;;6.90;;
23658;SDS011;12006;42.666;23.326;2022-12-18T14:08:12;13.57;;;7.43;;
23658;SDS011;12006;42.666;23.326;2022-12-18T14:10:41;12.50;;;7.70;;
23658;SDS011;12006;42.666;23.326;2022-12-18T14:13:06;11.57;;;7.60;;
23658;SDS011;12006;42.666;23.326;2022-12-18T14:15:34;9.87;;;7.00;;
23658;SDS011;12006;42.666;23.326;2022-12-18T14:18:13;14.00;;;9.77;;
23658;SDS011;12006;42.666;23.326;2022-12-18T14:20:41;11.27;;;6.07;;
23658;SDS011;12006;42.666;23.326;2022-12-18T14:25:56;11.03;;;7.70;;
23658;SDS011;12006;42.666;23.326;2022-12-18T14:28:21;12.67;;;9.07;;
23658;SDS011;12006;42.666;23.326;2022-12-18T14:30:50;13.63;;;8.87;;
23658;SDS011;12006;42.666;23.326;2022-12-18T14:33:17;12.70;;;9.00;;
23658;SDS011;12006;42.666;23.326;2022-12-18T14:36:02;12.83;;;9.63;;
23658;SDS011;12006;42.666;23.326;2022-12-18T14:38:38;11.83;;;7.40;;
23658;SDS011;12006;42.666;23.326;2022-12-18T14:41:10;14.37;;;9.67;;
23658;SDS011;12006;42.666;23.326;2022-12-18T14:43:36;14.03;;;9.30;;
23658;SDS011;12006;42.666;23.326;2022-12-18T14:46:02;13.13;;;9.60;;
23658;SDS011;12006;42.666;23.326;2022-12-18T14:51:00;8.87;;;6.40;;
23658;SDS011;12006;42.666;23.326;2022-12-18T14:53:37;14.50;;;9.93;;
23658;SDS011;12006;42.666;23.326;2022-12-18T14:56:03;9.00;;;6.00;;
23658;SDS011;12006;42.666;23.326;2022-12-18T14:58:35;13.23;;;8.90;;
23658;SDS011;12006;42.666;23.326;2022-12-18T15:01:00;11.53;;;7.37;;
23658;SDS011;12006;42.666;23.326;2022-12-18T15:03:25;16.00;;;10.07;;
23658;SDS011;12006;42.666;23.326;2022-12-18T15:05:50;14.57;;;10.87;;
23658;SDS011;12006;42.666;23.326;2022-12-18T15:08:30;16.80;;;11.33;;
23658;SDS011;12006;42.666;23.326;2022-12-18T15:10:56;14.50;;;10.77;;
23658;SDS011;12006;42.666;23.326;2022-12-18T15:13:22;13.33;;;9.67;;
23658;SDS011;12006;42.666;23.326;2022-12-18T15:15:47;14.37;;;8.83;;
23658;SDS011;12006;42.666;23.326;2022-12-18T15:18:14;12.10;;;6.87;;
23658;SDS011;12006;42.666;23.326;2022-12-18T15:23:20;18.90;;;11.20;;
23658;SDS011;12006;42.666;23.326;2022-12-18T15:25:47;15.40;;;11.23;;
23658;SDS011;12006;42.666;23.326;2022-12-18T15:28:17;14.77;;;9.77;;
23658;SDS011;12006;42.666;23.326;2022-12-18T15:31:04;15.97;;;10.00;;
23658;SDS011;12006;42.666;23.326;2022-12-18T15:33:30;12.43;;;7.87;;
23658;SDS011;12006;42.666;23.326;2022-12-18T15:35:57;16.17;;;10.97;;
23658;SDS011;12006;42.666;23.326;2022-12-18T15:38:22;15.10;;;10.90;;
23658;SDS011;12006;42.666;23.326;2022-12-18T15:40:48;13.43;;;9.90;;
23658;SDS011;12006;42.666;23.326;2022-12-18T15:43:13;14.47;;;8.00;;
23658;SDS011;12006;42.666;23.326;2022-12-18T15:45:56;10.50;;;6.50;;
23658;SDS011;12006;42.666;23.326;2022-12-18T15:48:22;16.60;;;11.57;;
23658;SDS011;12006;42.666;23.326;2022-12-18T15:50:51;14.07;;;10.07;;
23658;SDS011;12006;42.666;23.326;2022-12-18T15:53:17;18.87;;;11.40;;
23658;SDS011;12006;42.666;23.326;2022-12-18T15:55:42;14.83;;;8.73;;
23658;SDS011;12006;42.666;23.326;2022-12-18T15:58:26;12.00;;;7.50;;
23658;SDS011;12006;42.666;23.326;2022-12-18T16:00:51;15.50;;;8.60;;
23658;SDS011;12006;42.666;23.326;2022-12-18T16:03:17;16.60;;;10.90;;
23658;SDS011;12006;42.666;23.326;2022-12-18T16:05:42;13.13;;;8.27;;